createdAt,value
2018-08-23T00:00:38.422Z,70.70
2018-08-23T00:03:24.232Z,71.80
2018-08-23T00:06:05.648Z,72.70
2018-08-23T00:08:48.553Z,72.60
2018-08-23T00:11:34.705Z,72.60
2018-08-23T00:14:15.264Z,73.10
2018-08-23T00:16:55.877Z,73.60
2018-08-23T00:19:38.321Z,73.90
2018-08-23T00:22:27.123Z,74.90
2018-08-23T00:25:08.532Z,76.50
2018-08-23T00:27:49.204Z,77.40
2018-08-23T00:30:30.798Z,77.90
2018-08-23T00:33:11.396Z,79.10
2018-08-23T00:35:52.138Z,79.30
2018-08-23T00:38:32.846Z,79.60
2018-08-23T00:41:13.541Z,79.90
2018-08-23T00:43:54.088Z,80.30
2018-08-23T00:46:35.440Z,81.00
2018-08-23T00:49:16.621Z,80.50
2018-08-23T00:51:57.981Z,78.90
2018-08-23T00:57:25.234Z,78.30
2018-08-23T01:00:06.669Z,78.20
2018-08-23T01:02:52.114Z,77.00
2018-08-23T01:05:36.560Z,75.50
2018-08-23T01:08:22.505Z,75.30
2018-08-23T01:11:05.112Z,74.30
2018-08-23T01:13:47.058Z,72.50
2018-08-23T01:16:27.954Z,73.40
2018-08-23T01:20:12.766Z,73.80
2018-08-23T01:22:54.325Z,69.60
2018-08-23T01:25:36.674Z,69.70
2018-08-23T01:28:17.753Z,70.30
2018-08-23T01:30:59.349Z,70.80
2018-08-23T01:33:40.829Z,71.30
2018-08-23T01:36:27.404Z,71.80
2018-08-23T01:39:10.409Z,72.50
2018-08-23T01:41:51.389Z,72.40
2018-08-23T01:44:36.888Z,72.30
2018-08-23T01:47:17.614Z,72.30
2018-08-23T01:49:58.107Z,71.70
2018-08-23T01:52:45.365Z,70.60
2018-08-23T01:55:26.675Z,71.20
2018-08-23T01:58:07.985Z,70.90
2018-08-23T02:00:49.409Z,71.00
2018-08-23T02:03:30.087Z,70.50
2018-08-23T02:06:10.692Z,69.70
2018-08-23T02:08:52.282Z,69.60
2018-08-23T02:11:33.761Z,69.40
2018-08-23T02:14:14.266Z,69.20
2018-08-23T02:16:55.762Z,68.70
2018-08-23T02:19:37.318Z,68.20
2018-08-23T02:22:17.983Z,67.90
2018-08-23T02:24:59.332Z,67.40
2018-08-23T02:27:42.067Z,67.40
2018-08-23T02:30:23.009Z,67.00
2018-08-23T02:33:04.443Z,67.80
2018-08-23T02:35:45.245Z,72.10
2018-08-23T02:38:28.386Z,74.80
2018-08-23T02:41:09.572Z,76.40
2018-08-23T02:43:50.868Z,76.50
2018-08-23T02:46:31.674Z,76.40
2018-08-23T02:49:12.329Z,76.20
2018-08-23T02:51:53.866Z,76.30
2018-08-23T02:54:34.600Z,76.50
2018-08-23T02:57:16.078Z,76.90
2018-08-23T02:59:56.682Z,76.80
2018-08-23T03:02:37.607Z,76.70
2018-08-23T03:05:22.498Z,76.50
2018-08-23T03:08:03.639Z,76.50
2018-08-23T03:10:44.354Z,76.20
2018-08-23T03:13:26.905Z,76.30
2018-08-23T03:16:07.414Z,76.30
2018-08-23T03:18:48.047Z,76.70
2018-08-23T03:21:28.589Z,76.50
2018-08-23T03:24:09.360Z,76.30
2018-08-23T03:26:51.117Z,76.60
2018-08-23T03:29:32.475Z,76.70
2018-08-23T03:32:13.126Z,76.70
2018-08-23T03:34:53.768Z,77.10
2018-08-23T03:37:35.239Z,79.20
2018-08-23T03:40:17.981Z,80.60
2018-08-23T03:42:59.414Z,81.20
2018-08-23T03:45:41.196Z,81.10
2018-08-23T03:48:22.390Z,81.30
2018-08-23T03:51:03.210Z,81.40
2018-08-23T03:53:48.892Z,82.10
2018-08-23T03:56:29.411Z,82.60
2018-08-23T03:59:09.926Z,83.30
2018-08-23T04:01:50.613Z,83.30
2018-08-23T04:04:31.709Z,83.40
2018-08-23T04:07:12.823Z,83.60
2018-08-23T04:09:53.554Z,83.20
2018-08-23T04:12:34.833Z,83.00
2018-08-23T04:15:17.197Z,82.70
2018-08-23T04:17:58.347Z,83.00
2018-08-23T04:20:39.065Z,83.40
2018-08-23T04:23:20.465Z,83.60
2018-08-23T04:26:01.523Z,83.50
2018-08-23T04:28:42.562Z,83.30
2018-08-23T04:31:23.167Z,83.30
2018-08-23T04:34:03.704Z,83.40
2018-08-23T04:36:44.358Z,83.60
2018-08-23T04:39:25.010Z,82.20
2018-08-23T04:42:05.529Z,81.30
2018-08-23T04:44:52.705Z,81.20
2018-08-23T04:47:33.791Z,81.30
2018-08-23T04:50:14.702Z,81.40
2018-08-23T04:52:56.036Z,81.80
2018-08-23T04:55:36.662Z,82.10
2018-08-23T04:58:18.260Z,82.00
2018-08-23T05:00:58.846Z,81.80
2018-08-23T05:03:39.517Z,81.60
2018-08-23T05:06:20.501Z,81.50
2018-08-23T05:09:01.538Z,81.40
2018-08-23T05:11:42.094Z,81.40
2018-08-23T05:14:22.713Z,81.80
2018-08-23T05:17:04.263Z,82.10
2018-08-23T05:19:44.790Z,82.40
2018-08-23T05:22:25.427Z,82.20
2018-08-23T05:25:12.569Z,81.80
2018-08-23T05:27:58.812Z,81.90
2018-08-23T05:30:40.678Z,81.80
2018-08-23T05:33:22.749Z,81.70
2018-08-23T05:36:07.405Z,81.70
2018-08-23T05:38:48.158Z,81.60
2018-08-23T05:41:29.305Z,80.30
2018-08-23T05:44:15.594Z,70.70
2018-08-23T05:46:57.057Z,71.10
2018-08-23T05:49:38.217Z,71.70
2018-08-23T05:52:18.784Z,72.40
2018-08-23T05:55:00.274Z,72.70
2018-08-23T05:57:41.713Z,70.90
2018-08-23T06:00:22.966Z,69.50
2018-08-23T06:03:04.019Z,67.90
2018-08-23T06:05:46.621Z,66.30
2018-08-23T06:08:28.141Z,65.00
2018-08-23T06:11:10.790Z,64.80
2018-08-23T06:13:52.285Z,63.60
2018-08-23T06:16:32.922Z,62.90
2018-08-23T06:19:13.509Z,61.80
2018-08-23T06:21:54.174Z,61.90
2018-08-23T06:24:34.814Z,61.00
2018-08-23T06:27:15.593Z,61.60
2018-08-23T06:29:56.182Z,63.20
2018-08-23T06:32:37.685Z,63.70
2018-08-23T06:35:18.301Z,63.90
2018-08-23T06:37:59.028Z,63.70
2018-08-23T06:40:40.241Z,63.30
2018-08-23T06:43:21.234Z,64.10
2018-08-23T06:46:02.491Z,64.50
2018-08-23T06:48:43.431Z,67.10
2018-08-23T06:51:24.067Z,67.10
2018-08-23T06:54:04.792Z,66.50
2018-08-23T06:56:46.221Z,66.40
2018-08-23T06:59:26.948Z,65.80
2018-08-23T07:02:07.559Z,65.80
2018-08-23T07:04:49.009Z,66.00
2018-08-23T07:07:29.773Z,65.80
2018-08-23T07:10:11.175Z,65.00
2018-08-23T07:12:51.898Z,64.70
2018-08-23T07:15:32.522Z,64.90
2018-08-23T07:18:16.244Z,64.70
2018-08-23T07:20:56.834Z,65.50
2018-08-23T07:23:38.359Z,66.10
2018-08-23T07:26:19.966Z,67.40
2018-08-23T07:29:01.483Z,67.90
2018-08-23T07:31:42.176Z,68.50
2018-08-23T07:34:22.716Z,69.60
2018-08-23T07:37:08.356Z,69.00
2018-08-23T07:39:54.994Z,68.90
2018-08-23T07:42:36.947Z,69.90
2018-08-23T07:45:18.132Z,70.50
2018-08-23T07:48:00.591Z,70.50
2018-08-23T07:50:41.247Z,70.20
2018-08-23T07:53:22.087Z,70.40
2018-08-23T07:56:03.339Z,70.50
2018-08-23T07:58:43.984Z,70.20
2018-08-23T08:01:31.992Z,69.50
2018-08-23T08:04:13.408Z,69.50
2018-08-23T08:06:54.845Z,69.30
2018-08-23T08:09:36.354Z,69.50
2018-08-23T08:12:22.676Z,69.60
2018-08-23T08:15:03.547Z,69.40
2018-08-23T08:17:44.062Z,68.60
2018-08-23T08:20:24.573Z,67.90
2018-08-23T08:23:05.282Z,67.60
2018-08-23T08:25:46.781Z,66.50
2018-08-23T08:28:27.601Z,65.60
2018-08-23T08:31:09.117Z,64.70
2018-08-23T08:33:50.921Z,64.50
2018-08-23T08:36:33.301Z,64.80
2018-08-23T08:39:13.958Z,64.70
2018-08-23T08:41:55.472Z,64.90
2018-08-23T08:44:36.370Z,65.00
2018-08-23T08:47:17.662Z,64.70
2018-08-23T08:49:58.305Z,64.80
2018-08-23T08:52:39.804Z,64.40
2018-08-23T08:55:21.295Z,64.30
2018-08-23T08:58:02.129Z,64.90
2018-08-23T09:00:48.508Z,65.10
2018-08-23T09:03:34.848Z,65.50
2018-08-23T09:06:19.138Z,66.00
2018-08-23T09:09:05.130Z,65.60
2018-08-23T09:11:45.807Z,65.70
2018-08-23T09:14:26.658Z,65.80
2018-08-23T09:17:12.375Z,65.30
2018-08-23T09:19:53.990Z,64.50
2018-08-23T09:22:36.903Z,64.20
2018-08-23T09:25:20.971Z,64.10
2018-08-23T09:28:01.618Z,64.30
2018-08-23T09:30:42.230Z,63.50
2018-08-23T09:33:28.472Z,63.10
2018-08-23T09:36:09.309Z,62.40
2018-08-23T09:38:49.902Z,61.00
2018-08-23T09:41:30.534Z,60.70
2018-08-23T09:44:11.202Z,59.30
2018-08-23T09:46:56.853Z,58.60
2018-08-23T09:49:37.485Z,58.50
2018-08-23T09:52:20.719Z,58.30
2018-08-23T09:55:01.495Z,58.40
2018-08-23T09:57:42.724Z,58.00
2018-08-23T10:00:25.570Z,58.10
2018-08-23T10:05:18.915Z,58.00
2018-08-23T10:08:04.657Z,58.00
2018-08-23T10:10:51.183Z,58.20
2018-08-23T10:13:37.560Z,59.00
2018-08-23T10:16:23.865Z,59.20
2018-08-23T10:19:11.289Z,61.10
2018-08-23T10:21:57.961Z,61.40
2018-08-23T10:24:39.481Z,62.40
2018-08-23T10:27:20.982Z,63.20
2018-08-23T10:30:02.461Z,62.80
2018-08-23T10:32:43.022Z,64.00
2018-08-23T10:35:23.821Z,63.90
2018-08-23T10:38:05.889Z,63.50
2018-08-23T10:40:48.129Z,63.50
2018-08-23T10:43:34.565Z,64.20
2018-08-23T10:46:16.406Z,65.50
2018-08-23T10:48:57.302Z,65.50
2018-08-23T10:51:38.042Z,64.60
2018-08-23T10:54:19.398Z,64.60
2018-08-23T10:57:00.041Z,64.60
2018-08-23T10:59:40.691Z,64.80
2018-08-23T11:02:21.221Z,64.70
2018-08-23T11:05:01.802Z,65.10
2018-08-23T11:09:53.981Z,64.80
2018-08-23T11:12:40.567Z,65.10
2018-08-23T11:15:23.048Z,66.10
2018-08-23T11:18:09.483Z,66.10
2018-08-23T11:20:51.458Z,66.20
2018-08-23T11:23:32.414Z,66.90
2018-08-23T11:26:18.921Z,67.30
2018-08-23T11:28:59.726Z,67.10
2018-08-23T11:31:41.119Z,67.50
2018-08-23T11:34:21.878Z,67.50
2018-08-23T11:37:03.303Z,67.20
2018-08-23T11:39:44.057Z,67.20
2018-08-23T11:42:25.169Z,67.40
2018-08-23T11:45:07.185Z,67.10
2018-08-23T11:47:47.885Z,67.30
2018-08-23T11:50:28.550Z,67.40
2018-08-23T11:53:10.187Z,67.50
2018-08-23T11:55:52.230Z,67.60
2018-08-23T11:58:33.341Z,67.20
2018-08-23T12:01:16.984Z,67.80
2018-08-23T12:03:57.592Z,68.10
2018-08-23T12:06:38.311Z,68.20
2018-08-23T12:09:23.062Z,68.20
2018-08-23T12:12:05.139Z,68.30
2018-08-23T12:14:46.748Z,68.60
2018-08-23T12:17:27.266Z,68.40
2018-08-23T12:20:08.858Z,68.10
2018-08-23T12:22:49.565Z,68.00
2018-08-23T12:25:30.983Z,67.90
2018-08-23T12:28:16.657Z,67.30
2018-08-23T12:30:58.052Z,67.40
2018-08-23T12:33:39.523Z,67.10
2018-08-23T12:36:25.220Z,67.30
2018-08-23T12:39:11.698Z,67.50
2018-08-23T12:41:58.330Z,68.40
2018-08-23T12:44:39.980Z,68.60
2018-08-23T12:47:21.250Z,68.40
2018-08-23T12:50:06.009Z,68.10
2018-08-23T12:52:47.265Z,68.30
2018-08-23T12:55:27.969Z,68.60
2018-08-23T12:58:10.512Z,69.10
2018-08-23T13:00:51.376Z,69.30
2018-08-23T13:03:32.692Z,69.10
2018-08-23T13:06:13.465Z,69.20
2018-08-23T13:08:54.223Z,69.30
2018-08-23T13:11:35.675Z,69.30
2018-08-23T13:14:16.309Z,69.60
2018-08-23T13:16:56.858Z,70.00
2018-08-23T13:19:37.394Z,70.00
2018-08-23T13:22:24.072Z,70.00
2018-08-23T13:25:06.576Z,70.10
2018-08-23T13:27:48.087Z,70.20
2018-08-23T13:30:28.653Z,69.70
2018-08-23T13:33:09.267Z,70.10
2018-08-23T13:35:50.407Z,70.80
2018-08-23T13:38:31.507Z,71.30
2018-08-23T13:41:13.071Z,71.80
2018-08-23T13:43:54.665Z,72.20
2018-08-23T13:46:35.278Z,73.00
2018-08-23T13:49:15.809Z,73.40
2018-08-23T13:51:56.846Z,74.30
2018-08-23T13:54:37.980Z,74.70
2018-08-23T13:57:18.593Z,75.30
2018-08-23T13:59:59.326Z,76.30
2018-08-23T14:02:40.857Z,77.10
2018-08-23T14:05:21.402Z,77.90
2018-08-23T14:08:02.815Z,78.10
2018-08-23T14:10:43.557Z,79.00
2018-08-23T14:13:24.186Z,79.80
2018-08-23T14:16:05.873Z,79.50
2018-08-23T14:18:47.201Z,79.20
2018-08-23T14:21:28.724Z,79.40
2018-08-23T14:24:09.297Z,79.50
2018-08-23T14:26:50.027Z,78.70
2018-08-23T14:29:31.511Z,78.50
2018-08-23T14:32:12.173Z,78.90
2018-08-23T14:34:53.272Z,79.20
2018-08-23T14:37:34.287Z,78.60
2018-08-23T14:40:14.944Z,78.80
2018-08-23T14:42:55.645Z,79.00
2018-08-23T14:45:37.112Z,78.70
2018-08-23T14:48:19.979Z,79.00
2018-08-23T14:51:01.374Z,79.10
2018-08-23T14:53:42.885Z,78.80
2018-08-23T14:56:29.452Z,78.80
2018-08-23T14:59:10.992Z,79.10
2018-08-23T15:01:51.517Z,79.20
2018-08-23T15:04:32.069Z,79.80
2018-08-23T15:07:12.727Z,80.10
2018-08-23T15:09:53.367Z,80.50
2018-08-23T15:12:33.951Z,81.00
2018-08-23T15:15:14.661Z,81.10
2018-08-23T15:17:55.434Z,81.40
2018-08-23T15:20:35.990Z,81.80
2018-08-23T15:23:16.613Z,81.60
2018-08-23T15:25:58.107Z,81.60
2018-08-23T15:28:38.569Z,81.60
2018-08-23T15:31:19.257Z,81.50
2018-08-23T15:34:00.765Z,81.50
2018-08-23T15:36:41.403Z,81.10
2018-08-23T15:39:23.016Z,80.70
2018-08-23T15:42:04.431Z,81.00
2018-08-23T15:44:45.182Z,81.20
2018-08-23T15:47:25.658Z,80.30
2018-08-23T15:50:07.340Z,81.40
2018-08-23T15:52:48.413Z,81.10
2018-08-23T15:55:29.696Z,81.40
2018-08-23T15:58:11.104Z,81.50
2018-08-23T16:00:51.867Z,81.30
2018-08-23T16:03:33.358Z,81.30
2018-08-23T16:06:14.781Z,81.00
2018-08-23T16:08:55.341Z,81.10
2018-08-23T16:11:36.727Z,81.80
2018-08-23T16:14:18.224Z,80.70
2018-08-23T16:17:05.249Z,81.20
2018-08-23T16:19:51.270Z,81.10
2018-08-23T16:22:32.701Z,80.30
2018-08-23T16:25:13.305Z,79.40
2018-08-23T16:27:53.989Z,79.20
2018-08-23T16:30:34.991Z,79.20
2018-08-23T16:33:16.198Z,79.40
2018-08-23T16:35:56.929Z,79.50
2018-08-23T16:38:37.692Z,79.40
2018-08-23T16:41:18.246Z,79.80
2018-08-23T16:43:59.022Z,80.00
2018-08-23T16:46:39.614Z,79.20
2018-08-23T16:49:20.117Z,79.30
2018-08-23T16:52:00.802Z,79.70
2018-08-23T16:54:42.265Z,79.60
2018-08-23T16:57:23.193Z,78.70
2018-08-23T17:00:04.413Z,78.30
2018-08-23T17:02:44.930Z,78.80
2018-08-23T17:05:25.689Z,77.80
2018-08-23T17:08:08.119Z,78.10
2018-08-23T17:10:48.747Z,77.30
2018-08-23T17:13:35.123Z,76.20
2018-08-23T17:16:21.810Z,76.40
2018-08-23T17:19:03.334Z,75.60
2018-08-23T17:21:43.930Z,76.20
2018-08-23T17:24:24.761Z,75.90
2018-08-23T17:27:06.149Z,76.80
2018-08-23T17:29:47.495Z,77.00
2018-08-23T17:32:29.713Z,77.50
2018-08-23T17:35:10.397Z,78.20
2018-08-23T17:37:51.878Z,78.00
2018-08-23T17:40:32.504Z,77.80
2018-08-23T17:43:13.086Z,77.90
2018-08-23T17:45:53.781Z,76.50
2018-08-23T17:48:35.263Z,76.80
2018-08-23T17:51:15.821Z,77.90
2018-08-23T17:53:56.560Z,78.00
2018-08-23T17:56:37.233Z,78.40
2018-08-23T17:59:17.894Z,78.40
2018-08-23T18:01:59.281Z,78.80
2018-08-23T18:04:39.785Z,79.10
2018-08-23T18:07:20.796Z,79.30
2018-08-23T18:10:01.482Z,79.20
2018-08-23T18:12:42.238Z,79.30
2018-08-23T18:15:26.574Z,79.20
2018-08-23T18:18:07.629Z,79.30
2018-08-23T18:20:48.482Z,79.30
2018-08-23T18:23:29.047Z,79.30
2018-08-23T18:26:10.495Z,79.70
2018-08-23T18:28:51.198Z,79.90
2018-08-23T18:31:33.233Z,79.80
2018-08-23T18:34:14.313Z,79.80
2018-08-23T18:36:55.897Z,79.90
2018-08-23T18:39:36.483Z,80.00
2018-08-23T18:42:17.132Z,80.00
2018-08-23T18:44:57.667Z,80.10
2018-08-23T18:47:38.598Z,80.10
2018-08-23T18:50:19.944Z,80.10
2018-08-23T18:53:00.800Z,80.00
2018-08-23T18:55:42.385Z,80.00
2018-08-23T18:58:23.829Z,80.10
2018-08-23T19:01:05.275Z,80.30
2018-08-23T19:03:46.070Z,80.40
2018-08-23T19:06:32.722Z,80.40
2018-08-23T19:09:14.680Z,80.50
2018-08-23T19:11:55.532Z,80.60
2018-08-23T19:14:36.073Z,81.20
2018-08-23T19:17:21.895Z,81.40
2018-08-23T19:20:03.234Z,81.30
2018-08-23T19:22:43.959Z,81.50
2018-08-23T19:25:24.654Z,81.60
2018-08-23T19:28:05.244Z,81.50
2018-08-23T19:30:46.706Z,81.60
2018-08-23T19:33:27.422Z,82.10
2018-08-23T19:36:08.946Z,82.40
2018-08-23T19:38:49.549Z,82.70
2018-08-23T19:41:30.230Z,82.80
2018-08-23T19:44:11.792Z,82.90
2018-08-23T19:46:57.453Z,83.10
2018-08-23T19:49:44.070Z,83.20
2018-08-23T19:52:25.469Z,83.20
2018-08-23T19:55:06.046Z,83.40
2018-08-23T19:57:46.656Z,83.40
2018-08-23T20:00:28.160Z,83.60
2018-08-23T20:03:08.895Z,83.70
2018-08-23T20:05:50.189Z,83.60
2018-08-23T20:08:31.915Z,83.80
2018-08-23T20:11:12.781Z,83.90
2018-08-23T20:13:54.398Z,83.90
2018-08-23T20:16:35.017Z,84.00
2018-08-23T20:19:16.442Z,84.10
2018-08-23T20:21:57.806Z,83.90
2018-08-23T20:24:38.747Z,83.70
2018-08-23T20:27:19.321Z,83.80
2018-08-23T20:29:59.948Z,83.80
2018-08-23T20:32:41.588Z,83.70
2018-08-23T20:35:22.874Z,83.70
2018-08-23T20:38:03.443Z,83.80
2018-08-23T20:40:44.174Z,83.60
2018-08-23T20:43:24.863Z,84.10
2018-08-23T20:46:06.369Z,84.00
2018-08-23T20:48:47.908Z,84.20
2018-08-23T20:51:29.254Z,84.40
2018-08-23T20:54:10.213Z,84.50
2018-08-23T20:56:51.501Z,84.60
2018-08-23T20:59:32.969Z,84.60
2018-08-23T21:02:13.704Z,84.60
2018-08-23T21:04:55.265Z,84.60
2018-08-23T21:07:36.798Z,84.60
2018-08-23T21:10:17.477Z,84.50
2018-08-23T21:12:58.973Z,84.30
2018-08-23T21:15:40.521Z,84.40
2018-08-23T21:18:22.002Z,84.40
2018-08-23T21:21:03.104Z,84.40
2018-08-23T21:23:44.212Z,84.40
2018-08-23T21:26:25.741Z,84.50
2018-08-23T21:29:06.317Z,84.60
2018-08-23T21:31:46.948Z,84.70
2018-08-23T21:34:27.599Z,84.60
2018-08-23T21:37:08.189Z,84.40
2018-08-23T21:39:48.969Z,84.10
2018-08-23T21:42:30.546Z,84.30
2018-08-23T21:45:11.277Z,84.30
2018-08-23T21:47:52.734Z,84.20
2018-08-23T21:50:33.481Z,83.90
2018-08-23T21:53:14.777Z,83.80
2018-08-23T21:55:55.679Z,83.90
2018-08-23T21:58:36.164Z,83.80
2018-08-23T22:01:16.821Z,84.00
2018-08-23T22:03:57.336Z,83.50
2018-08-23T22:06:38.797Z,83.40
2018-08-23T22:09:19.484Z,83.40
2018-08-23T22:12:00.913Z,83.40
2018-08-23T22:14:42.489Z,83.40
2018-08-23T22:17:24.221Z,83.30
2018-08-23T22:20:05.757Z,84.30
2018-08-23T22:22:46.434Z,84.70
2018-08-23T22:25:27.300Z,84.70
2018-08-23T22:28:08.241Z,84.70
2018-08-23T22:30:49.687Z,84.80
2018-08-23T22:33:31.137Z,84.80
2018-08-23T22:36:11.746Z,84.80
2018-08-23T22:38:52.389Z,85.10
2018-08-23T22:41:33.022Z,85.30
2018-08-23T22:44:16.302Z,85.50
2018-08-23T22:46:57.413Z,85.70
2018-08-23T22:49:38.867Z,85.80
2018-08-23T22:52:20.350Z,85.90
2018-08-23T22:55:00.894Z,86.00
2018-08-23T22:57:41.590Z,85.90
2018-08-23T23:00:27.223Z,85.90
2018-08-23T23:03:12.936Z,86.10
2018-08-23T23:05:54.261Z,86.30
2018-08-23T23:08:35.010Z,86.50
2018-08-23T23:11:16.217Z,86.50
2018-08-23T23:13:57.047Z,86.50
2018-08-23T23:16:37.627Z,86.40
2018-08-23T23:19:18.246Z,86.60
2018-08-23T23:21:58.904Z,86.50
2018-08-23T23:24:45.475Z,86.40
2018-08-23T23:27:26.795Z,86.90
2018-08-23T23:30:08.339Z,86.80
2018-08-23T23:32:49.550Z,86.70
2018-08-23T23:35:30.166Z,86.90
2018-08-23T23:38:10.766Z,86.80
2018-08-23T23:40:51.455Z,86.60
2018-08-23T23:43:32.190Z,86.80
2018-08-23T23:46:13.688Z,86.90
2018-08-23T23:48:54.332Z,86.80
2018-08-23T23:51:35.138Z,86.90
2018-08-23T23:54:16.545Z,86.90
2018-08-23T23:56:58.046Z,87.00
2018-08-23T23:59:38.616Z,87.10
